Time;durP1;ratioP1;P1;durP2;ratioP2;P2;SDS_P1;SDS_P2;PMS_P1;PMS_P2;Temp;Humidity;BMP_temperature;BMP_pressure;BME280_temperature;BME280_humidity;BME280_pressure;Samples;Min_cycle;Max_cycle;Signal;HPM_P1;HPM_P2
2022/10/08 00:01:02;;;;;;;10.87;1.30;;;11.20;99.90;;;;;;5092897;28;20167;-79
2022/10/08 00:03:31;;;;;;;4.97;1.13;;;11.20;99.90;;;;;;5093115;28;20459;-79
2022/10/08 00:05:59;;;;;;;4.23;2.07;;;11.00;99.90;;;;;;5093104;28;20822;-79
2022/10/08 00:08:26;;;;;;;3.03;0.67;;;11.00;99.90;;;;;;5092961;28;20423;-79
2022/10/08 00:10:57;;;;;;;5.90;0.40;;;11.00;99.90;;;;;;5092925;28;20408;-79
2022/10/08 00:13:24;;;;;;;3.83;0.80;;;11.00;99.90;;;;;;5093044;28;20461;-79
2022/10/08 00:15:50;;;;;;;3.40;1.20;;;11.10;99.90;;;;;;5092648;28;20773;-79
2022/10/08 00:18:16;;;;;;;1.70;1.00;;;11.10;99.90;;;;;;5092926;28;20417;-82
2022/10/08 00:20:42;;;;;;;3.23;0.47;;;11.10;99.90;;;;;;5092899;28;20912;-79
2022/10/08 00:23:08;;;;;;;2.43;0.70;;;11.10;99.90;;;;;;5092835;28;20176;-80
2022/10/08 00:25:43;;;;;;;4.67;0.97;;;11.10;99.90;;;;;;5092789;28;20429;-79
2022/10/08 00:28:10;;;;;;;3.83;1.00;;;11.10;99.90;;;;;;5092776;28;20177;-79
2022/10/08 00:30:37;;;;;;;4.30;0.80;;;10.90;99.90;;;;;;5092465;28;20435;-79
2022/10/08 00:33:02;;;;;;;9.07;1.10;;;10.90;99.90;;;;;;5091565;28;20506;-79
2022/10/08 00:35:28;;;;;;;6.00;0.87;;;10.80;99.90;;;;;;5092752;28;20815;-79
2022/10/08 00:37:53;;;;;;;4.60;1.07;;;10.80;99.90;;;;;;5092724;28;20800;-79
2022/10/08 00:40:19;;;;;;;8.40;1.13;;;10.80;99.90;;;;;;5092637;28;20691;-82
2022/10/08 00:42:44;;;;;;;4.33;0.90;;;10.90;99.90;;;;;;5074621;28;20208;-80
2022/10/08 00:45:13;;;;;;;1.20;0.50;;;10.80;99.90;;;;;;5092158;28;20200;-80
2022/10/08 00:47:42;;;;;;;2.67;0.70;;;10.70;99.90;;;;;;5092601;28;20179;-79
2022/10/08 00:50:16;;;;;;;7.10;1.23;;;10.70;99.90;;;;;;5092461;28;20412;-80
2022/10/08 00:52:57;;;;;;;2.53;0.63;;;10.70;99.90;;;;;;5074363;28;21004;-79
2022/10/08 00:55:26;;;;;;;3.30;0.90;;;10.70;99.90;;;;;;5092612;28;20417;-79
2022/10/08 00:57:53;;;;;;;4.27;0.87;;;10.60;99.90;;;;;;5092598;28;20422;-79
2022/10/08 01:00:22;;;;;;;5.00;0.60;;;10.50;99.90;;;;;;5092064;28;20416;-79
2022/10/08 01:02:52;;;;;;;5.60;0.60;;;10.50;99.90;;;;;;5092178;28;20976;-82
2022/10/08 01:05:38;;;;;;;7.07;1.50;;;10.40;99.90;;;;;;5092403;28;20966;-79
2022/10/08 01:08:30;;;;;;;8.53;1.23;;;10.40;99.90;;;;;;5092350;28;20403;-79
2022/10/08 01:10:59;;;;;;;5.37;1.30;;;10.50;99.90;;;;;;5092450;28;20446;-79
2022/10/08 01:13:40;;;;;;;8.70;1.30;;;10.30;99.90;;;;;;5091820;28;20544;-79
2022/10/08 01:16:26;;;;;;;2.20;0.83;;;10.20;99.90;;;;;;5092311;28;20925;-79
2022/10/08 01:19:24;;;;;;;6.47;0.97;;;10.30;99.90;;;;;;5092053;28;20416;-79
2022/10/08 01:22:05;;;;;;;4.80;0.73;;;10.20;99.90;;;;;;5092199;28;20467;-79
2022/10/08 01:27:59;;;;;;;3.87;0.70;;;10.30;99.90;;;;;;5066350;28;20505;-79
2022/10/08 01:30:25;;;;;;;3.17;1.07;;;10.20;99.90;;;;;;5091879;28;20407;-79
2022/10/08 01:32:57;;;;;;;5.43;1.10;;;10.30;99.90;;;;;;5092190;28;20458;-79
2022/10/08 01:35:28;;;;;;;3.47;0.83;;;10.30;99.90;;;;;;5092102;28;20165;-82
2022/10/08 01:37:57;;;;;;;5.93;1.07;;;10.40;99.90;;;;;;5092096;28;20416;-79
2022/10/08 01:40:29;;;;;;;6.90;0.80;;;10.50;99.90;;;;;;5092026;28;20430;-81
2022/10/08 01:42:58;;;;;;;12.03;1.27;;;10.50;99.90;;;;;;5092110;28;20404;-79
2022/10/08 01:45:43;;;;;;;3.73;0.57;;;10.50;99.90;;;;;;5095375;28;20410;-79
2022/10/08 01:48:15;;;;;;;9.67;0.80;;;10.50;99.90;;;;;;5095807;28;20442;-79
2022/10/08 01:50:49;;;;;;;2.40;0.53;;;10.40;99.90;;;;;;5095750;28;20396;-79
2022/10/08 01:53:17;;;;;;;8.00;1.60;;;10.40;99.90;;;;;;5095540;28;20466;-82
2022/10/08 01:55:52;;;;;;;3.70;0.60;;;10.40;99.90;;;;;;5095617;28;20752;-79
2022/10/08 01:58:27;;;;;;;5.57;0.93;;;10.40;99.90;;;;;;5095151;28;20501;-79
2022/10/08 02:00:54;;;;;;;4.23;0.80;;;10.40;99.90;;;;;;5095481;28;20400;-82
2022/10/08 02:03:20;;;;;;;6.30;0.87;;;10.40;99.90;;;;;;5095622;28;20470;-78
2022/10/08 02:05:50;;;;;;;9.63;1.30;;;10.40;99.90;;;;;;5095342;28;20797;-82
2022/10/08 02:08:16;;;;;;;4.77;1.03;;;10.40;99.90;;;;;;5095396;28;20416;-82
2022/10/08 02:10:42;;;;;;;2.93;0.67;;;10.40;99.90;;;;;;5095350;28;20493;-79
2022/10/08 02:13:08;;;;;;;7.30;0.73;;;10.40;99.90;;;;;;5094858;28;20496;-79
2022/10/08 02:15:46;;;;;;;1.53;0.63;;;10.40;99.90;;;;;;5094863;28;20168;-82
2022/10/08 02:18:17;;;;;;;6.73;1.30;;;10.30;99.90;;;;;;5095237;28;20172;-79
2022/10/08 02:20:58;;;;;;;2.77;0.93;;;10.30;99.90;;;;;;5095155;28;20438;-79
2022/10/08 02:23:43;;;;;;;3.83;0.73;;;10.20;99.90;;;;;;5095195;28;20411;-80
2022/10/08 02:26:24;;;;;;;7.17;1.30;;;10.20;99.90;;;;;;5095065;28;20403;-78
2022/10/08 02:29:16;;;;;;;4.40;0.80;;;10.20;99.90;;;;;;5094637;28;20415;-79
2022/10/08 02:31:54;;;;;;;4.27;1.50;;;10.10;99.90;;;;;;5050018;28;20456;-81
2022/10/08 02:34:24;;;;;;;3.80;0.83;;;10.20;99.90;;;;;;5094905;28;20474;-82
2022/10/08 02:37:04;;;;;;;2.30;0.40;;;10.20;99.90;;;;;;5094780;28;20973;-79
2022/10/08 02:39:33;;;;;;;4.53;0.43;;;10.10;99.90;;;;;;5094736;28;20473;-79
2022/10/08 02:42:03;;;;;;;3.47;1.50;;;10.20;99.90;;;;;;5090183;28;20496;-79
2022/10/08 02:44:34;;;;;;;4.27;0.87;;;10.20;99.90;;;;;;5082690;28;20481;-80
2022/10/08 02:47:03;;;;;;;2.77;0.70;;;10.20;99.90;;;;;;5079948;28;20519;-79
2022/10/08 02:49:34;;;;;;;6.07;0.83;;;10.10;99.90;;;;;;5094393;28;20753;-79
2022/10/08 02:52:01;;;;;;;1.27;0.30;;;10.20;99.90;;;;;;5076532;28;20942;-79
2022/10/08 02:54:32;;;;;;;8.97;1.13;;;10.20;99.90;;;;;;5094155;28;20465;-81
2022/10/08 02:57:08;;;;;;;2.60;0.63;;;10.20;99.90;;;;;;5093867;28;20416;-80
2022/10/08 02:59:34;;;;;;;3.10;0.60;;;10.20;99.90;;;;;;5094040;28;20426;-79
2022/10/08 03:02:03;;;;;;;2.57;0.80;;;10.30;99.90;;;;;;5094646;28;20411;-80
2022/10/08 03:04:39;;;;;;;4.23;0.60;;;10.30;99.90;;;;;;5094099;28;20407;-80
2022/10/08 03:07:06;;;;;;;6.30;1.50;;;10.40;99.90;;;;;;5094211;28;20809;-83
2022/10/08 03:09:35;;;;;;;4.57;0.40;;;10.40;99.90;;;;;;5094119;28;20407;-79
2022/10/08 03:12:01;;;;;;;6.77;0.60;;;10.40;99.90;;;;;;5094092;28;20486;-80
2022/10/08 03:14:27;;;;;;;4.30;0.30;;;10.40;99.90;;;;;;5093607;28;20539;-79
2022/10/08 03:16:53;;;;;;;7.83;1.33;;;10.40;99.90;;;;;;5094089;28;20170;-84
2022/10/08 03:19:20;;;;;;;3.73;0.60;;;10.50;99.90;;;;;;5094086;28;20425;-84
2022/10/08 03:21:49;;;;;;;5.10;0.80;;;10.50;99.90;;;;;;5093829;28;20537;-79
2022/10/08 03:24:15;;;;;;;1.37;0.40;;;10.60;99.90;;;;;;5092791;28;20422;-79
2022/10/08 03:26:40;;;;;;;8.53;1.07;;;10.70;99.90;;;;;;5093460;28;20417;-83
2022/10/08 03:29:06;;;;;;;4.13;0.50;;;10.70;99.90;;;;;;5093337;28;20403;-80
2022/10/08 03:31:32;;;;;;;4.27;1.17;;;10.70;99.90;;;;;;5093595;28;20265;-80
2022/10/08 03:33:58;;;;;;;6.80;0.57;;;10.70;99.90;;;;;;5093843;28;20479;-80
2022/10/08 03:36:24;;;;;;;2.60;0.50;;;10.70;99.90;;;;;;5093634;28;20507;-80
2022/10/08 03:38:50;;;;;;;2.33;0.70;;;10.70;99.90;;;;;;5093732;28;20170;-84
2022/10/08 03:41:17;;;;;;;3.40;0.40;;;10.80;99.90;;;;;;5093620;28;20410;-83
2022/10/08 03:43:43;;;;;;;5.60;0.70;;;10.80;99.90;;;;;;5093146;28;20416;-79
2022/10/08 03:46:10;;;;;;;8.50;1.23;;;10.90;99.90;;;;;;5093424;28;20402;-83
2022/10/08 03:48:36;;;;;;;4.20;0.83;;;10.90;99.90;;;;;;5093676;28;20504;-80
2022/10/08 03:51:06;;;;;;;6.40;1.13;;;10.90;99.90;;;;;;5093396;28;20443;-80
2022/10/08 03:53:34;;;;;;;3.03;0.90;;;11.00;99.90;;;;;;5093174;28;20250;-83
2022/10/08 03:56:05;;;;;;;4.57;1.10;;;11.00;99.90;;;;;;5093726;28;20411;-83
2022/10/08 03:58:30;;;;;;;4.70;1.13;;;11.10;99.90;;;;;;5093026;28;20505;-80
2022/10/08 04:01:02;;;;;;;2.93;0.83;;;11.10;99.90;;;;;;5093487;28;20501;-80
2022/10/08 04:03:29;;;;;;;9.37;0.90;;;11.10;99.90;;;;;;5093527;28;20170;-80
2022/10/08 04:05:55;;;;;;;5.57;1.00;;;11.10;99.90;;;;;;5093167;28;20412;-81
2022/10/08 04:08:20;;;;;;;2.67;0.60;;;11.10;99.90;;;;;;5093071;28;20840;-82
2022/10/08 04:10:46;;;;;;;4.33;0.77;;;11.10;99.90;;;;;;5093148;28;20460;-79
2022/10/08 04:13:12;;;;;;;4.23;0.50;;;11.20;99.90;;;;;;5092347;28;20278;-79
2022/10/08 04:15:38;;;;;;;5.77;0.70;;;11.20;99.90;;;;;;5092913;28;20200;-79
2022/10/08 04:18:03;;;;;;;5.53;1.50;;;11.20;99.90;;;;;;5093087;28;20516;-79
2022/10/08 04:20:30;;;;;;;4.23;1.07;;;11.20;99.90;;;;;;5092870;28;20432;-80
2022/10/08 04:22:56;;;;;;;7.83;0.97;;;11.20;99.90;;;;;;5092821;28;20630;-79
2022/10/08 04:25:21;;;;;;;2.63;0.87;;;11.20;99.90;;;;;;5092950;28;20414;-79
2022/10/08 04:27:48;;;;;;;6.90;1.03;;;11.20;99.90;;;;;;5092789;28;20655;-80
2022/10/08 04:30:15;;;;;;;4.80;1.47;;;11.30;99.90;;;;;;5092524;28;20169;-79
2022/10/08 04:32:41;;;;;;;5.17;1.43;;;11.30;99.90;;;;;;5092726;28;20926;-83
2022/10/08 04:35:07;;;;;;;3.73;1.37;;;11.40;99.90;;;;;;5092648;28;20494;-79
2022/10/08 04:37:32;;;;;;;5.73;0.93;;;11.40;99.90;;;;;;5092685;28;20237;-79
2022/10/08 04:39:58;;;;;;;4.40;1.50;;;11.40;99.90;;;;;;5092729;28;20426;-83
2022/10/08 04:42:24;;;;;;;4.80;1.60;;;11.40;99.90;;;;;;5092604;28;20179;-79
2022/10/08 04:44:49;;;;;;;6.03;0.77;;;11.40;99.90;;;;;;5092147;28;20178;-79
2022/10/08 04:47:15;;;;;;;3.10;1.00;;;11.50;99.90;;;;;;5092620;28;20178;-79
2022/10/08 04:49:40;;;;;;;2.30;0.43;;;11.40;99.90;;;;;;5092522;28;20640;-80
2022/10/08 04:52:06;;;;;;;6.53;1.10;;;11.40;99.90;;;;;;5092502;28;20222;-79
2022/10/08 04:54:31;;;;;;;2.87;0.67;;;11.40;99.90;;;;;;5092502;28;20218;-79
2022/10/08 04:56:57;;;;;;;7.07;0.83;;;11.40;99.90;;;;;;5092646;28;20181;-79
2022/10/08 04:59:22;;;;;;;8.80;1.17;;;11.40;99.90;;;;;;5092347;28;20702;-79
2022/10/08 05:01:48;;;;;;;1.80;0.73;;;11.50;99.90;;;;;;5092368;28;20176;-79
2022/10/08 05:04:13;;;;;;;4.47;0.50;;;11.50;99.90;;;;;;5092330;28;20426;-79
2022/10/08 05:06:39;;;;;;;5.93;1.33;;;11.50;99.90;;;;;;5092392;28;20169;-80
2022/10/08 05:09:04;;;;;;;5.33;0.90;;;11.50;99.90;;;;;;5092275;28;20174;-80
2022/10/08 05:11:30;;;;;;;5.43;1.10;;;11.50;99.90;;;;;;5092113;28;20762;-80
2022/10/08 05:13:57;;;;;;;10.77;1.07;;;11.40;99.90;;;;;;5091797;28;20212;-80
2022/10/08 05:16:24;;;;;;;4.73;0.83;;;11.40;99.90;;;;;;5092291;28;20413;-80
2022/10/08 05:18:50;;;;;;;3.23;0.80;;;11.40;99.90;;;;;;5093732;28;20407;-79
2022/10/08 05:21:22;;;;;;;3.40;0.80;;;11.40;99.90;;;;;;5096223;28;20411;-80
2022/10/08 05:23:57;;;;;;;10.93;1.10;;;11.50;99.90;;;;;;5096229;28;20454;-80
2022/10/08 05:26:26;;;;;;;5.23;0.83;;;11.40;99.90;;;;;;5096101;28;20899;-79
2022/10/08 05:28:56;;;;;;;5.50;1.23;;;11.50;99.90;;;;;;5095679;28;20774;-79
2022/10/08 05:31:24;;;;;;;5.33;1.40;;;11.50;99.90;;;;;;5096224;28;20817;-80
2022/10/08 05:33:50;;;;;;;6.30;0.87;;;11.50;99.90;;;;;;5095828;28;20509;-79
2022/10/08 05:36:25;;;;;;;4.13;0.57;;;11.50;99.90;;;;;;5096058;28;20409;-80
2022/10/08 05:38:51;;;;;;;5.67;1.30;;;11.50;99.90;;;;;;5096056;28;20502;-78
2022/10/08 05:41:25;;;;;;;5.73;0.83;;;11.50;99.90;;;;;;5095996;28;20410;-79
2022/10/08 05:43:52;;;;;;;4.47;1.60;;;11.50;99.90;;;;;;5095512;28;20414;-80
2022/10/08 05:46:18;;;;;;;1.37;0.30;;;11.50;99.90;;;;;;5095643;28;20407;-80
2022/10/08 05:48:44;;;;;;;4.27;0.67;;;11.50;99.90;;;;;;5095822;28;20497;-80
2022/10/08 05:51:14;;;;;;;2.30;1.20;;;11.50;99.90;;;;;;5095712;28;20173;-79
2022/10/08 05:53:42;;;;;;;4.10;1.13;;;11.50;99.90;;;;;;5095605;28;20475;-79
2022/10/08 05:56:10;;;;;;;4.43;0.60;;;11.50;99.90;;;;;;5095627;28;20411;-79
2022/10/08 05:58:38;;;;;;;6.20;2.17;;;11.50;99.90;;;;;;5095086;28;20419;-81
2022/10/08 06:01:06;;;;;;;7.40;2.40;;;11.50;99.90;;;;;;5095466;28;20414;-79
2022/10/08 06:03:31;;;;;;;5.47;0.73;;;11.50;99.90;;;;;;5095753;28;20407;-79
2022/10/08 06:06:06;;;;;;;5.73;1.40;;;11.60;99.90;;;;;;5095387;28;20829;-79
2022/10/08 06:08:32;;;;;;;4.57;1.27;;;11.60;99.90;;;;;;5095371;28;20426;-79
2022/10/08 06:10:58;;;;;;;5.30;1.10;;;11.60;99.90;;;;;;5095013;28;20525;-80
2022/10/08 06:13:26;;;;;;;9.33;1.03;;;11.60;99.90;;;;;;5095044;28;20562;-80
2022/10/08 06:16:00;;;;;;;4.90;1.10;;;11.50;99.90;;;;;;5095298;28;20234;-79
2022/10/08 06:18:28;;;;;;;3.53;1.00;;;11.60;99.90;;;;;;5095191;28;20407;-80
2022/10/08 06:20:53;;;;;;;2.83;0.90;;;11.60;99.90;;;;;;5095117;28;20415;-79
2022/10/08 06:23:20;;;;;;;5.60;0.70;;;11.70;99.90;;;;;;5095013;28;20411;-81
2022/10/08 06:25:45;;;;;;;5.00;1.10;;;11.80;99.90;;;;;;5095128;28;20177;-80
2022/10/08 06:28:11;;;;;;;6.00;1.27;;;11.90;99.90;;;;;;5094702;28;20499;-80
2022/10/08 06:30:40;;;;;;;6.23;2.03;;;11.90;99.90;;;;;;5094807;28;20528;-81
2022/10/08 06:33:05;;;;;;;3.00;0.80;;;11.90;99.90;;;;;;5094761;28;20209;-81
2022/10/08 06:35:31;;;;;;;5.27;1.47;;;11.90;99.90;;;;;;5094957;28;20920;-81
2022/10/08 06:37:56;;;;;;;2.80;1.47;;;11.90;99.90;;;;;;5094862;28;20264;-81
2022/10/08 06:40:22;;;;;;;4.77;0.93;;;11.90;99.90;;;;;;5094854;28;20171;-80
2022/10/08 06:42:47;;;;;;;3.57;0.50;;;12.10;99.90;;;;;;5094460;28;20637;-80
2022/10/08 06:45:13;;;;;;;4.40;1.00;;;12.20;99.90;;;;;;5094698;28;20182;-79
2022/10/08 06:47:38;;;;;;;5.87;1.43;;;12.00;99.90;;;;;;5094615;28;20638;-80
2022/10/08 06:50:04;;;;;;;3.37;1.20;;;12.00;99.90;;;;;;5094607;28;20567;-79
2022/10/08 06:52:30;;;;;;;6.50;1.00;;;11.90;99.90;;;;;;5094546;28;20227;-80
2022/10/08 06:54:55;;;;;;;3.17;0.90;;;11.90;99.90;;;;;;5094597;28;20805;-81
2022/10/08 06:57:21;;;;;;;5.00;1.90;;;11.80;99.90;;;;;;5094443;28;20655;-80
2022/10/08 06:59:46;;;;;;;3.50;0.50;;;11.80;99.90;;;;;;5093980;28;20224;-80
2022/10/08 07:02:12;;;;;;;6.53;1.30;;;11.70;99.90;;;;;;5094285;28;20194;-80
2022/10/08 07:04:37;;;;;;;3.23;0.60;;;11.60;99.90;;;;;;5094211;28;20179;-80
2022/10/08 07:07:03;;;;;;;2.53;0.60;;;11.60;99.90;;;;;;5094232;28;20167;-80
2022/10/08 07:09:28;;;;;;;5.50;1.13;;;11.70;99.90;;;;;;5094359;28;20244;-79
2022/10/08 07:11:54;;;;;;;7.03;0.90;;;11.70;99.90;;;;;;5094065;28;20223;-80
2022/10/08 07:14:19;;;;;;;3.30;0.40;;;11.80;99.90;;;;;;5093639;28;20214;-80
2022/10/08 07:16:45;;;;;;;5.03;1.30;;;12.40;99.90;;;;;;5094278;28;20179;-80
2022/10/08 07:19:10;;;;;;;3.77;0.83;;;13.30;99.90;;;;;;5093987;28;20714;-80
2022/10/08 07:21:36;;;;;;;4.53;0.80;;;14.90;1.00;;;;;;5094010;28;20252;-81
2022/10/08 07:24:02;;;;;;;3.50;0.60;;;16.30;1.00;;;;;;5094201;28;20172;-80
2022/10/08 07:26:31;;;;;;;3.67;1.87;;;17.20;21.20;;;;;;5093846;28;20178;-80
2022/10/08 07:29:03;;;;;;;4.20;0.70;;;17.60;1.00;;;;;;5093450;28;20164;-80
2022/10/08 07:31:32;;;;;;;5.10;0.60;;;17.10;1.00;;;;;;5093849;28;20504;-80
2022/10/08 07:33:59;;;;;;;3.73;0.30;;;17.90;99.90;;;;;;5093665;28;20485;-80
2022/10/08 07:36:26;;;;;;;4.33;0.70;;;18.80;99.90;;;;;;5093821;28;20414;-81
2022/10/08 07:38:57;;;;;;;7.60;1.17;;;19.10;99.90;;;;;;5093791;28;20432;-80
2022/10/08 07:41:27;;;;;;;7.60;0.80;;;19.50;99.90;;;;;;5093113;28;20400;-80
2022/10/08 07:43:58;;;;;;;2.50;0.50;;;19.70;99.90;;;;;;5093088;28;20535;-80
2022/10/08 07:46:29;;;;;;;3.43;1.13;;;19.90;99.90;;;;;;5093514;28;20967;-81
2022/10/08 07:48:57;;;;;;;3.80;0.40;;;20.10;99.90;;;;;;5093658;28;20422;-81
2022/10/08 07:51:24;;;;;;;5.83;0.83;;;19.50;99.90;;;;;;5093312;28;20418;-81
2022/10/08 07:53:49;;;;;;;2.67;0.83;;;20.10;99.90;;;;;;5093356;28;20509;-81
2022/10/08 07:56:20;;;;;;;3.80;0.90;;;19.00;99.90;;;;;;5093460;28;20449;-80
2022/10/08 07:58:46;;;;;;;3.97;0.80;;;16.70;99.90;;;;;;5093006;28;20190;-80
2022/10/08 08:01:16;;;;;;;2.90;0.30;;;18.50;1.00;;;;;;5093225;28;20418;-80
2022/10/08 08:03:42;;;;;;;3.87;0.60;;;19.60;99.90;;;;;;5093539;28;20407;-80
2022/10/08 08:06:14;;;;;;;2.70;0.40;;;20.20;99.90;;;;;;5093426;28;20415;-81
2022/10/08 08:08:42;;;;;;;2.37;0.50;;;21.20;99.90;;;;;;5093491;28;20417;-80
2022/10/08 08:11:10;;;;;;;3.47;0.60;;;21.30;99.90;;;;;;5092614;28;20466;-81
2022/10/08 08:13:38;;;;;;;2.97;1.03;;;21.70;99.90;;;;;;5092472;28;20474;-80
2022/10/08 08:16:15;;;;;;;3.60;0.50;;;22.00;99.90;;;;;;5092974;28;20456;-79
2022/10/08 08:18:44;;;;;;;1.60;0.50;;;22.40;99.90;;;;;;5092957;28;20409;-81
2022/10/08 08:21:12;;;;;;;5.53;0.50;;;21.20;99.90;;;;;;5092924;28;20442;-81
2022/10/08 08:23:40;;;;;;;3.07;1.13;;;19.10;99.90;;;;;;5093050;28;20437;-80
2022/10/08 08:26:16;;;;;;;3.03;0.30;;;18.80;99.90;;;;;;5093031;28;20422;-80
2022/10/08 08:28:42;;;;;;;3.40;0.70;;;20.10;99.90;;;;;;5092228;28;20406;-81
2022/10/08 08:31:13;;;;;;;2.50;0.53;;;21.10;99.90;;;;;;5092901;28;20425;-83
2022/10/08 08:33:39;;;;;;;4.20;0.87;;;21.30;99.90;;;;;;5092757;28;20208;-81
2022/10/08 08:36:05;;;;;;;4.63;0.97;;;21.80;99.90;;;;;;5092543;28;20765;-80
2022/10/08 08:38:33;;;;;;;1.83;0.40;;;21.70;99.90;;;;;;5092820;28;20510;-81
2022/10/08 08:41:10;;;;;;;2.90;0.50;;;22.30;99.90;;;;;;5092913;28;20433;-81
2022/10/08 08:43:35;;;;;;;2.40;0.40;;;22.90;99.90;;;;;;5099741;28;20402;-81
2022/10/08 08:46:02;;;;;;;2.70;0.40;;;23.20;97.40;;;;;;5093000;28;20898;-82
2022/10/08 08:48:32;;;;;;;3.13;0.60;;;21.50;99.90;;;;;;5095995;28;20169;-82
2022/10/08 08:50:58;;;;;;;4.67;0.70;;;21.20;99.90;;;;;;5095361;28;20443;-84
2022/10/08 08:53:24;;;;;;;1.20;0.20;;;21.60;99.90;;;;;;5094165;28;20462;-82
2022/10/08 08:55:54;;;;;;;5.07;0.53;;;21.60;99.90;;;;;;5092639;28;20164;-81
2022/10/08 08:58:43;;;;;;;4.27;0.60;;;21.10;99.90;;;;;;5092102;28;20755;-82
2022/10/08 09:01:08;;;;;;;3.10;0.60;;;22.30;99.90;;;;;;5092580;28;20446;-83
2022/10/08 09:03:46;;;;;;;1.33;0.37;;;22.90;99.00;;;;;;5092404;28;20472;-81
2022/10/08 09:06:14;;;;;;;3.67;0.63;;;22.30;91.90;;;;;;5092352;28;20194;-81
2022/10/08 09:08:45;;;;;;;3.10;0.30;;;21.60;99.90;;;;;;5092517;28;20441;-81
2022/10/08 09:11:14;;;;;;;3.43;0.53;;;22.30;99.00;;;;;;5092264;28;20454;-82
2022/10/08 09:13:56;;;;;;;5.00;0.87;;;19.40;99.90;;;;;;5091857;28;20454;-82
2022/10/08 09:16:25;;;;;;;1.97;0.43;;;19.00;99.90;;;;;;5092326;28;20414;-81
2022/10/08 09:18:51;;;;;;;3.60;0.80;;;18.30;99.90;;;;;;5092159;28;20390;-80
2022/10/08 09:21:18;;;;;;;1.97;0.50;;;18.10;99.90;;;;;;5091996;28;20426;-81
2022/10/08 09:23:44;;;;;;;2.17;0.47;;;17.50;1.00;;;;;;5092195;28;20165;-81
2022/10/08 09:26:18;;;;;;;5.60;1.23;;;17.30;1.00;;;;;;5092250;28;20432;-81
2022/10/08 09:28:48;;;;;;;5.10;1.27;;;16.90;99.90;;;;;;5091962;28;20431;-80
2022/10/08 09:31:30;;;;;;;3.43;0.47;;;16.50;99.90;;;;;;5092078;28;20418;-80
2022/10/08 09:34:04;;;;;;;3.87;0.43;;;16.00;99.90;;;;;;5092061;28;20472;-81
2022/10/08 09:36:42;;;;;;;3.13;0.60;;;15.80;99.90;;;;;;5092174;28;20455;-81
2022/10/08 09:39:16;;;;;;;2.20;0.40;;;16.90;99.90;;;;;;5092025;28;20412;-81
2022/10/08 09:41:44;;;;;;;7.10;0.63;;;19.50;99.90;;;;;;5092058;28;20402;-82
2022/10/08 09:44:18;;;;;;;4.20;0.50;;;19.90;99.90;;;;;;5091544;28;20495;-81
2022/10/08 09:46:45;;;;;;;4.00;0.40;;;21.10;99.90;;;;;;5092073;28;20401;-81
2022/10/08 09:49:26;;;;;;;1.27;0.40;;;22.30;99.90;;;;;;5091906;28;20505;-82
2022/10/08 09:51:53;;;;;;;3.23;0.93;;;22.80;99.90;;;;;;5092046;28;20406;-82
2022/10/08 09:54:34;;;;;;;4.30;0.43;;;23.20;99.80;;;;;;5091853;28;20488;-81
2022/10/08 09:56:59;;;;;;;6.10;0.70;;;23.20;80.00;;;;;;5091520;28;20406;-82
2022/10/08 09:59:29;;;;;;;3.80;0.30;;;22.80;61.50;;;;;;5091883;28;20426;-82
2022/10/08 10:01:56;;;;;;;3.40;0.50;;;23.90;65.30;;;;;;5091956;28;20168;-82
2022/10/08 10:04:32;;;;;;;2.63;0.43;;;24.70;64.30;;;;;;5092571;28;20452;-82
2022/10/08 10:06:58;;;;;;;1.87;0.50;;;24.20;53.80;;;;;;5095432;28;20807;-82
2022/10/08 10:09:48;;;;;;;1.53;0.20;;;21.20;39.10;;;;;;5095548;28;20524;-81
2022/10/08 10:12:24;;;;;;;2.03;0.30;;;20.00;74.90;;;;;;5094780;28;20232;-81
2022/10/08 10:15:00;;;;;;;2.40;0.50;;;19.30;91.20;;;;;;5095155;28;20545;-83
2022/10/08 10:17:26;;;;;;;2.30;0.60;;;19.70;99.90;;;;;;5095357;28;20544;-81
2022/10/08 10:19:58;;;;;;;3.50;0.20;;;22.20;88.80;;;;;;5095131;28;20514;-82
2022/10/08 10:22:31;;;;;;;2.43;0.33;;;22.60;69.70;;;;;;5095178;28;20176;-81
2022/10/08 10:25:31;;;;;;;4.23;0.97;;;20.80;63.10;;;;;;5095100;28;20425;-83
2022/10/08 10:28:07;;;;;;;2.00;0.33;;;21.80;71.00;;;;;;5055585;28;20430;-81
2022/10/08 10:30:48;;;;;;;4.13;0.20;;;20.90;65.60;;;;;;5094902;28;20987;-80
2022/10/08 10:33:19;;;;;;;5.03;0.70;;;19.60;71.00;;;;;;5094616;28;20473;-81
2022/10/08 10:35:59;;;;;;;1.63;0.20;;;18.70;89.20;;;;;;5086779;28;20447;-80
2022/10/08 10:38:30;;;;;;;3.80;0.30;;;17.90;99.90;;;;;;5076514;28;20410;-82
2022/10/08 10:41:05;;;;;;;1.37;0.30;;;17.30;99.90;;;;;;5089819;28;20409;-81
2022/10/08 10:43:45;;;;;;;2.60;0.80;;;17.10;99.90;;;;;;5093943;28;20431;-80
2022/10/08 10:46:29;;;;;;;1.70;0.47;;;16.90;99.90;;;;;;5094492;28;20406;-79
2022/10/08 10:48:55;;;;;;;2.43;0.67;;;16.70;99.90;;;;;;5094309;28;20502;-80
2022/10/08 10:51:40;;;;;;;3.80;1.47;;;16.60;99.90;;;;;;5094137;28;20505;-80
2022/10/08 10:54:37;;;;;;;1.90;0.33;;;16.50;99.90;;;;;;5094442;28;20518;-81
2022/10/08 10:57:10;;;;;;;1.63;0.20;;;16.20;99.90;;;;;;5093956;28;20741;-80
2022/10/08 10:59:46;;;;;;;5.50;0.30;;;17.00;99.90;;;;;;5094432;28;20915;-79
2022/10/08 11:02:36;;;;;;;3.30;0.47;;;17.70;99.90;;;;;;5094375;28;20812;-80
2022/10/08 11:05:21;;;;;;;1.53;0.40;;;18.20;99.90;;;;;;5094046;28;20478;-81
2022/10/08 11:07:49;;;;;;;1.40;0.20;;;19.00;99.10;;;;;;5094246;28;20411;-80
2022/10/08 11:10:32;;;;;;;1.43;0.20;;;19.10;99.90;;;;;;5093622;28;20413;-79
2022/10/08 11:13:24;;;;;;;3.03;0.37;;;20.10;92.40;;;;;;5093481;28;20487;-79
2022/10/08 11:16:02;;;;;;;3.57;0.47;;;19.50;96.70;;;;;;5093056;28;20963;-81
2022/10/08 11:18:51;;;;;;;0.60;0.20;;;20.40;79.60;;;;;;5093965;28;20859;-80
2022/10/08 11:21:48;;;;;;;1.53;0.30;;;19.10;95.00;;;;;;5093959;28;20850;-80
2022/10/08 11:24:53;;;;;;;1.07;0.20;;;18.20;93.70;;;;;;5093834;28;20416;-81
2022/10/08 11:27:32;;;;;;;1.00;0.20;;;17.10;99.90;;;;;;5093606;28;20428;-79
2022/10/08 11:30:21;;;;;;;2.83;0.20;;;16.50;99.90;;;;;;5093949;28;20928;-80
2022/10/08 11:32:54;;;;;;;1.33;0.20;;;16.30;99.90;;;;;;5093612;28;20419;-81
2022/10/08 11:35:46;;;;;;;3.03;0.20;;;16.30;99.90;;;;;;5093418;28;20956;-79
2022/10/08 11:38:51;;;;;;;3.20;0.40;;;16.90;1.00;;;;;;5093679;28;20411;-81
2022/10/08 11:41:56;;;;;;;3.83;0.23;;;16.50;1.00;;;;;;5093226;28;20452;-81
2022/10/08 11:44:22;;;;;;;1.40;0.20;;;16.10;1.00;;;;;;5075361;28;20777;-80
2022/10/08 11:46:48;;;;;;;5.53;0.30;;;15.20;1.00;;;;;;5093293;28;20425;-81
2022/10/08 11:49:14;;;;;;;1.83;0.20;;;14.70;1.00;;;;;;5093403;28;20433;-80
2022/10/08 11:51:44;;;;;;;1.27;0.20;;;13.80;99.90;;;;;;5093437;28;20226;-83
2022/10/08 11:54:33;;;;;;;0.77;0.20;;;13.40;99.90;;;;;;5093229;28;20306;-81
2022/10/08 11:57:19;;;;;;;1.37;0.30;;;13.10;99.90;;;;;;5092838;28;20444;-81
2022/10/08 11:59:55;;;;;;;2.30;0.40;;;13.10;99.90;;;;;;5093302;28;20404;-81
2022/10/08 12:02:30;;;;;;;1.73;0.20;;;14.50;99.90;;;;;;5093110;28;20435;-82
2022/10/08 12:04:58;;;;;;;3.40;0.20;;;17.00;1.00;;;;;;5092690;28;20402;-81
2022/10/08 12:07:33;;;;;;;1.73;0.50;;;18.50;99.90;;;;;;5093170;28;20497;-82
2022/10/08 12:10:05;;;;;;;0.80;0.27;;;17.20;99.90;;;;;;5092924;28;20424;-81
2022/10/08 12:12:49;;;;;;;3.50;0.83;;;15.60;99.90;;;;;;5078100;28;20473;-82
2022/10/08 12:15:23;;;;;;;0.50;0.20;;;15.50;1.00;;;;;;5072749;28;20435;-82
2022/10/08 12:17:55;;;;;;;4.10;0.20;;;17.60;1.00;;;;;;5072726;28;20397;-82
2022/10/08 12:20:28;;;;;;;0.53;0.20;;;18.60;99.90;;;;;;5072468;28;20427;-82
2022/10/08 12:23:33;;;;;;;0.77;0.20;;;18.40;1.00;;;;;;5072666;28;20403;-82
2022/10/08 12:25:58;;;;;;;1.23;0.20;;;19.10;1.00;;;;;;4991133;28;20430;-83
2022/10/08 12:28:27;;;;;;;0.90;0.20;;;18.70;1.00;;;;;;4990971;28;20785;-82
2022/10/08 12:30:57;;;;;;;1.00;0.20;;;18.20;99.90;;;;;;5031036;28;20657;-82
2022/10/08 12:33:24;;;;;;;1.13;0.40;;;18.00;99.90;;;;;;5072518;28;20998;-82
2022/10/08 12:36:02;;;;;;;1.77;0.43;;;17.30;1.00;;;;;;5072086;28;20415;-85
2022/10/08 12:38:30;;;;;;;1.30;0.63;;;16.50;1.00;;;;;;5072403;28;20414;-85
2022/10/08 12:41:21;;;;;;;2.90;0.30;;;16.70;99.90;;;;;;5071852;28;20415;-82
2022/10/08 12:44:04;;;;;;;0.97;0.20;;;17.30;41.60;;;;;;5072203;28;20427;-84
2022/10/08 12:46:56;;;;;;;1.43;0.20;;;17.20;1.00;;;;;;5072516;28;20480;-82
2022/10/08 12:49:36;;;;;;;0.90;0.20;;;17.30;1.00;;;;;;5072294;28;20907;-82
2022/10/08 12:52:11;;;;;;;1.50;0.20;;;17.20;99.90;;;;;;5072267;28;20403;-82
2022/10/08 12:54:45;;;;;;;1.20;0.30;;;16.70;1.00;;;;;;5072123;28;20525;-81
2022/10/08 12:57:12;;;;;;;1.30;0.20;;;16.40;99.90;;;;;;5071959;28;20431;-81
2022/10/08 12:59:40;;;;;;;2.93;0.20;;;16.30;99.90;;;;;;5072256;28;20404;-79
2022/10/08 13:02:24;;;;;;;2.40;1.63;;;16.10;1.00;;;;;;5071934;28;20412;-81
2022/10/08 13:04:50;;;;;;;1.77;0.30;;;15.90;99.90;;;;;;5071611;28;20760;-82
2022/10/08 13:07:31;;;;;;;4.50;0.40;;;15.50;99.90;;;;;;5071955;28;20420;-82
2022/10/08 13:09:58;;;;;;;2.77;0.27;;;15.30;99.90;;;;;;5071536;28;20181;-81
2022/10/08 13:12:24;;;;;;;2.30;0.63;;;15.20;1.00;;;;;;5085113;28;20452;-81